Lake Tahoe, California
Current Conditions -  °F | °C
As of 6:53 AM on Friday 19 Dec 2014 (Local Time) from KTVL Reporting Station
Broken Clouds Broken Clouds  
Wind Chill: 32°   Ceiling: 4800
Heat Index: 40°   Visibility: 10mi
Dew Point:   Wind: 15mph
Humidity: 28%   Direction: 170°S
Pressure: 30.1"   Gusts: 22mph
Location:  38.9°N, 120°W
Report Text: KTVL 191453Z AUTO 17013G19KT 10SM BKN048 04/M13 A3010 RMK AO2 SLP184 T00441128 56007
Loading
Personal Weather Stations






























Interactive Weather Map New forecast layout! Learn more

10-Day Weather Forecast

Advertisements
Track Severe Weather on mobile